createdAt,value
2024-03-10T00:02:16.558Z,17.80
2024-03-10T00:04:45.967Z,23.08
2024-03-10T00:07:12.677Z,15.10
2024-03-10T00:09:39.449Z,14.93
2024-03-10T00:12:06.626Z,14.77
2024-03-10T00:14:34.580Z,15.63
2024-03-10T00:17:01.388Z,15.77
2024-03-10T00:19:29.772Z,14.40
2024-03-10T00:21:56.540Z,15.60
2024-03-10T00:24:23.326Z,15.73
2024-03-10T00:26:53.041Z,14.52
2024-03-10T00:29:20.007Z,17.92
2024-03-10T00:31:47.013Z,18.02
2024-03-10T00:34:13.799Z,16.65
2024-03-10T00:36:40.578Z,15.63
2024-03-10T00:39:07.370Z,18.38
2024-03-10T00:41:34.108Z,16.85
2024-03-10T00:44:00.945Z,16.65
2024-03-10T00:46:27.714Z,19.30
2024-03-10T00:48:54.584Z,16.10
2024-03-10T00:51:21.373Z,16.70
2024-03-10T00:53:48.195Z,13.77
2024-03-10T00:56:15.045Z,16.02
2024-03-10T00:58:45.027Z,15.18
2024-03-10T01:01:11.885Z,15.90
2024-03-10T01:03:41.418Z,17.58
2024-03-10T01:06:08.233Z,15.85
2024-03-10T01:08:35.076Z,16.00
2024-03-10T01:11:02.020Z,17.30
2024-03-10T01:13:28.935Z,22.42
2024-03-10T01:15:56.696Z,18.95
2024-03-10T01:18:23.528Z,18.20
2024-03-10T01:20:50.566Z,18.33
2024-03-10T01:23:17.476Z,20.40
2024-03-10T01:25:45.216Z,20.27
2024-03-10T01:28:11.962Z,23.08
2024-03-10T01:30:38.903Z,21.80
2024-03-10T01:33:09.205Z,21.65
2024-03-10T01:35:38.604Z,21.60
2024-03-10T01:38:05.444Z,21.55
2024-03-10T01:40:32.184Z,20.45
2024-03-10T01:42:58.932Z,25.10
2024-03-10T01:45:25.896Z,23.13
2024-03-10T01:47:56.005Z,21.80
2024-03-10T01:50:23.056Z,21.30
2024-03-10T01:52:49.921Z,22.80
2024-03-10T01:55:23.376Z,19.45
2024-03-10T01:57:54.129Z,23.05
2024-03-10T02:00:23.545Z,17.73
2024-03-10T02:02:50.968Z,18.08
2024-03-10T02:05:18.438Z,20.48
2024-03-10T02:07:45.390Z,26.27
2024-03-10T02:10:12.416Z,22.55
2024-03-10T02:12:42.869Z,26.10
2024-03-10T02:15:09.811Z,24.27
2024-03-10T02:17:36.580Z,21.17
2024-03-10T02:20:04.680Z,21.50
2024-03-10T02:22:32.082Z,29.00
2024-03-10T02:25:03.294Z,24.45
2024-03-10T02:27:30.578Z,25.35
2024-03-10T02:30:00.296Z,26.33
2024-03-10T02:32:28.560Z,25.48
2024-03-10T02:34:58.385Z,29.33
2024-03-10T02:37:25.231Z,27.33
2024-03-10T02:39:52.049Z,30.08
2024-03-10T02:42:18.806Z,27.30
2024-03-10T02:44:45.581Z,26.52
2024-03-10T02:47:12.422Z,30.23
2024-03-10T02:49:43.271Z,33.92
2024-03-10T02:52:15.863Z,31.02
2024-03-10T02:54:42.634Z,31.80
2024-03-10T02:57:11.959Z,30.92
2024-03-10T02:59:38.750Z,26.27
2024-03-10T03:02:05.794Z,29.05
2024-03-10T03:04:32.734Z,29.08
2024-03-10T03:06:59.586Z,36.38
2024-03-10T03:09:26.434Z,29.15
2024-03-10T03:11:53.175Z,35.90
2024-03-10T03:14:20.030Z,35.20
2024-03-10T03:16:47.269Z,28.02
2024-03-10T03:19:14.060Z,39.17
2024-03-10T03:21:44.404Z,31.90
2024-03-10T03:24:11.152Z,33.58
2024-03-10T03:26:38.141Z,33.50
2024-03-10T03:29:05.051Z,32.67
2024-03-10T03:31:33.521Z,34.85
2024-03-10T03:34:00.329Z,34.13
2024-03-10T03:36:27.402Z,33.78
2024-03-10T03:38:54.194Z,35.58
2024-03-10T03:41:23.695Z,27.02
2024-03-10T03:43:50.718Z,28.40
2024-03-10T03:46:20.430Z,31.73
2024-03-10T03:48:47.216Z,29.23
2024-03-10T03:51:16.524Z,29.75
2024-03-10T03:53:43.378Z,34.83
2024-03-10T03:56:12.673Z,34.20
2024-03-10T03:58:39.512Z,31.20
2024-03-10T04:01:06.311Z,30.85
2024-03-10T04:03:33.238Z,33.35
2024-03-10T04:06:00.419Z,37.05
2024-03-10T04:08:27.507Z,35.70
2024-03-10T04:10:54.381Z,36.70
2024-03-10T04:13:21.288Z,32.83
2024-03-10T04:15:48.101Z,39.17
2024-03-10T04:18:14.972Z,36.30
2024-03-10T04:20:41.972Z,37.28
2024-03-10T04:23:08.768Z,37.58
2024-03-10T04:25:36.003Z,39.75
2024-03-10T04:28:02.765Z,41.63
2024-03-10T04:30:29.790Z,38.17
2024-03-10T04:32:59.857Z,35.60
2024-03-10T04:35:27.245Z,36.15
2024-03-10T04:37:54.050Z,45.03
2024-03-10T04:40:20.879Z,42.17
2024-03-10T04:42:50.673Z,42.92
2024-03-10T04:45:18.160Z,43.92
2024-03-10T04:47:45.148Z,42.58
2024-03-10T04:50:12.214Z,46.72
2024-03-10T04:52:39.036Z,57.53
2024-03-10T04:55:06.276Z,52.65
2024-03-10T04:57:33.755Z,49.42
2024-03-10T05:00:04.463Z,52.22
2024-03-10T05:02:31.355Z,49.45
2024-03-10T05:04:58.230Z,43.72
2024-03-10T05:07:25.075Z,53.10
2024-03-10T05:09:51.944Z,58.97
2024-03-10T05:12:18.831Z,53.17
2024-03-10T05:14:45.929Z,61.63
2024-03-10T05:17:12.777Z,57.05
2024-03-10T05:19:42.524Z,59.92
2024-03-10T05:22:09.426Z,61.67
2024-03-10T05:24:36.181Z,56.85
2024-03-10T05:27:02.986Z,60.00
2024-03-10T05:29:29.906Z,52.45
2024-03-10T05:31:59.192Z,50.60
2024-03-10T05:34:25.993Z,47.03
2024-03-10T05:36:53.037Z,47.83
2024-03-10T05:39:22.092Z,51.47
2024-03-10T05:41:48.940Z,52.13
2024-03-10T05:44:15.777Z,48.80
2024-03-10T05:46:42.630Z,47.83
2024-03-10T05:49:09.413Z,46.67
2024-03-10T05:51:39.242Z,40.28
2024-03-10T05:54:14.817Z,41.50
2024-03-10T05:56:41.603Z,45.17
2024-03-10T05:59:08.431Z,42.38
2024-03-10T06:01:37.942Z,36.90
2024-03-10T06:04:04.877Z,37.38
2024-03-10T06:06:31.644Z,43.47
2024-03-10T06:09:02.509Z,35.40
2024-03-10T06:11:32.181Z,35.80
2024-03-10T06:13:59.894Z,33.47
2024-03-10T06:16:29.863Z,32.97
2024-03-10T06:18:58.478Z,34.05
2024-03-10T06:21:28.095Z,33.58
2024-03-10T06:23:54.872Z,25.75
2024-03-10T06:26:22.552Z,25.75
2024-03-10T06:28:50.728Z,23.55
2024-03-10T06:31:18.434Z,22.75
2024-03-10T06:33:45.931Z,22.02
2024-03-10T06:36:13.297Z,21.63
2024-03-10T06:38:41.292Z,22.73
2024-03-10T06:41:12.079Z,18.83
2024-03-10T06:43:39.280Z,22.70
2024-03-10T06:46:08.991Z,15.48
2024-03-10T06:48:36.929Z,18.20
2024-03-10T06:51:04.008Z,18.60
2024-03-10T06:53:30.737Z,17.80
2024-03-10T06:56:00.513Z,15.52
2024-03-10T06:58:32.948Z,18.63
2024-03-10T07:00:59.925Z,21.65
2024-03-10T07:03:27.074Z,14.02
2024-03-10T07:05:53.901Z,15.00
2024-03-10T07:08:20.721Z,17.67
2024-03-10T07:10:47.541Z,16.80
2024-03-10T07:13:14.614Z,17.70
2024-03-10T07:15:41.373Z,16.90
2024-03-10T07:18:08.662Z,18.08
2024-03-10T07:20:35.730Z,15.63
2024-03-10T07:23:05.453Z,15.82
2024-03-10T07:25:37.068Z,14.57
2024-03-10T07:28:04.333Z,15.95
2024-03-10T07:30:31.103Z,16.65
2024-03-10T07:32:57.822Z,16.20
2024-03-10T07:35:24.736Z,13.85
2024-03-10T07:37:52.324Z,14.18
2024-03-10T07:40:21.496Z,16.58
2024-03-10T07:42:48.550Z,13.38
2024-03-10T07:45:16.192Z,11.85
2024-03-10T07:47:45.010Z,15.23
2024-03-10T07:50:19.132Z,11.05
2024-03-10T07:52:47.547Z,13.05
2024-03-10T07:55:14.556Z,11.98
2024-03-10T07:57:43.848Z,12.48
2024-03-10T08:00:11.102Z,13.35
2024-03-10T08:02:42.082Z,15.38
2024-03-10T08:05:08.934Z,15.00
2024-03-10T08:07:35.688Z,15.60
2024-03-10T08:10:02.517Z,13.52
2024-03-10T08:12:29.283Z,16.65
2024-03-10T08:14:56.025Z,12.30
2024-03-10T08:17:25.613Z,12.95
2024-03-10T08:19:52.435Z,14.18
2024-03-10T08:22:19.310Z,13.75
2024-03-10T08:24:46.082Z,12.60
2024-03-10T08:27:13.566Z,11.02
2024-03-10T08:29:43.224Z,11.07
2024-03-10T08:32:10.054Z,13.07
2024-03-10T08:34:39.777Z,12.60
2024-03-10T08:37:06.679Z,11.38
2024-03-10T08:39:33.510Z,12.65
2024-03-10T08:42:00.334Z,9.30
2024-03-10T08:44:27.252Z,13.05
2024-03-10T08:46:54.196Z,9.52
2024-03-10T08:49:21.018Z,10.50
2024-03-10T08:51:47.797Z,12.43
2024-03-10T08:54:20.404Z,9.40
2024-03-10T08:56:47.181Z,13.43
2024-03-10T08:59:14.032Z,8.55
2024-03-10T09:01:40.868Z,12.05
2024-03-10T09:04:07.595Z,10.32
2024-03-10T09:06:37.415Z,10.75
2024-03-10T09:09:04.529Z,15.02
2024-03-10T09:11:33.517Z,13.38
2024-03-10T09:14:00.494Z,10.20
2024-03-10T09:16:27.916Z,8.57
2024-03-10T09:18:54.631Z,9.32
2024-03-10T09:21:24.425Z,7.45
2024-03-10T09:23:51.178Z,14.10
2024-03-10T09:26:17.934Z,10.55
2024-03-10T09:28:45.074Z,8.57
2024-03-10T09:31:15.455Z,6.13
2024-03-10T09:33:45.600Z,10.15
2024-03-10T09:36:13.112Z,8.00
2024-03-10T09:38:41.995Z,8.00
2024-03-10T09:41:10.691Z,6.80
2024-03-10T09:43:39.223Z,8.70
2024-03-10T09:46:06.426Z,6.75
2024-03-10T09:48:33.746Z,6.97
2024-03-10T09:51:01.379Z,9.27
2024-03-10T09:53:28.181Z,10.82
2024-03-10T09:55:55.348Z,10.52
2024-03-10T09:58:40.753Z,6.90
2024-03-10T10:01:14.693Z,9.20
2024-03-10T10:03:44.282Z,8.30
2024-03-10T10:06:14.337Z,6.97
2024-03-10T10:08:41.152Z,11.35
2024-03-10T10:11:08.022Z,7.18
2024-03-10T10:13:34.804Z,8.95
2024-03-10T10:16:02.069Z,17.15
2024-03-10T10:18:31.017Z,9.60
2024-03-10T10:21:02.526Z,9.80
2024-03-10T10:23:29.601Z,13.40
2024-03-10T10:26:16.668Z,12.07
2024-03-10T10:28:43.555Z,10.45
2024-03-10T10:31:15.087Z,9.68
2024-03-10T10:33:46.060Z,12.55
2024-03-10T10:36:13.801Z,7.90
2024-03-10T10:38:45.675Z,8.80
2024-03-10T10:41:13.286Z,14.90
2024-03-10T10:43:43.265Z,10.43
2024-03-10T10:46:11.673Z,7.07
2024-03-10T10:48:41.418Z,14.57
2024-03-10T10:51:08.950Z,8.15
2024-03-10T10:53:37.568Z,7.53
2024-03-10T10:56:04.628Z,10.93
2024-03-10T10:58:33.778Z,19.38
2024-03-10T11:01:01.143Z,7.03
2024-03-10T11:03:28.328Z,10.50
2024-03-10T11:06:04.185Z,12.43
2024-03-10T11:08:31.991Z,10.98
2024-03-10T11:10:59.709Z,12.73
2024-03-10T11:13:26.978Z,12.35
2024-03-10T11:16:10.581Z,18.77
2024-03-10T11:18:38.127Z,15.30
2024-03-10T11:21:07.699Z,12.70
2024-03-10T11:23:40.168Z,15.80
2024-03-10T11:26:15.193Z,14.15
2024-03-10T11:28:51.905Z,21.13
2024-03-10T11:31:38.685Z,15.48
2024-03-10T11:34:08.146Z,16.23
2024-03-10T11:36:40.069Z,14.27
2024-03-10T11:39:07.879Z,11.38
2024-03-10T11:41:37.576Z,16.38
2024-03-10T11:44:05.050Z,13.07
2024-03-10T11:46:33.203Z,12.80
2024-03-10T11:49:01.001Z,11.57
2024-03-10T11:51:33.166Z,17.90
2024-03-10T11:54:01.348Z,9.85
2024-03-10T11:56:28.241Z,22.05
2024-03-10T11:58:55.476Z,13.25
2024-03-10T12:01:22.299Z,12.88
2024-03-10T12:03:49.461Z,17.02
2024-03-10T12:06:17.534Z,14.00
2024-03-10T12:08:47.296Z,15.15
2024-03-10T12:11:14.425Z,11.77
2024-03-10T12:13:49.509Z,17.05
2024-03-10T12:16:16.463Z,14.75
2024-03-10T12:18:46.028Z,14.60
2024-03-10T12:21:17.174Z,11.55
2024-03-10T12:23:45.118Z,12.83
2024-03-10T12:26:14.990Z,18.60
2024-03-10T12:28:44.046Z,13.38
2024-03-10T12:31:21.649Z,15.05
2024-03-10T12:33:48.482Z,12.60
2024-03-10T12:36:15.206Z,12.52
2024-03-10T12:38:42.521Z,7.85
2024-03-10T12:41:11.661Z,12.50
2024-03-10T12:43:38.694Z,10.50
2024-03-10T12:46:05.865Z,2.75
2024-03-10T12:48:35.871Z,6.93
2024-03-10T12:51:04.148Z,3.70
2024-03-10T12:53:37.776Z,3.65
2024-03-10T12:56:05.074Z,3.67
2024-03-10T12:58:31.860Z,3.97
2024-03-10T13:00:58.631Z,2.42
2024-03-10T13:03:25.779Z,6.10
2024-03-10T13:05:55.076Z,2.35
2024-03-10T13:08:23.169Z,3.20
2024-03-10T13:10:50.095Z,2.78
2024-03-10T13:13:16.928Z,4.57
2024-03-10T13:15:43.779Z,2.85
2024-03-10T13:18:11.856Z,2.80
2024-03-10T13:20:47.559Z,4.05
2024-03-10T13:23:14.996Z,1.58
2024-03-10T13:25:44.714Z,3.65
2024-03-10T13:28:11.477Z,2.20
2024-03-10T13:30:38.283Z,2.90
2024-03-10T13:33:05.630Z,5.05
2024-03-10T13:35:32.468Z,5.28
2024-03-10T13:37:59.299Z,1.42
2024-03-10T13:40:26.349Z,2.58
2024-03-10T13:42:55.614Z,3.80
2024-03-10T13:45:27.920Z,3.03
2024-03-10T13:48:03.778Z,1.80
2024-03-10T13:50:30.866Z,2.70
2024-03-10T13:52:57.665Z,2.85
2024-03-10T13:55:24.603Z,2.92
2024-03-10T13:57:53.658Z,2.03
2024-03-10T14:00:24.255Z,3.63
2024-03-10T14:03:03.921Z,3.15
2024-03-10T14:05:31.228Z,2.97
2024-03-10T14:07:58.222Z,1.38
2024-03-10T14:10:25.038Z,1.98
2024-03-10T14:12:51.866Z,1.80
2024-03-10T14:15:18.737Z,3.30
2024-03-10T14:17:46.199Z,2.10
2024-03-10T14:20:16.688Z,4.05
2024-03-10T14:22:48.159Z,1.25
2024-03-10T14:25:15.214Z,1.52
2024-03-10T14:27:51.712Z,1.10
2024-03-10T14:30:19.441Z,2.67
2024-03-10T14:32:46.234Z,1.70
2024-03-10T14:35:15.443Z,1.10
2024-03-10T14:37:44.134Z,1.58
2024-03-10T14:40:14.185Z,2.42
2024-03-10T14:42:41.063Z,1.40
2024-03-10T14:45:07.990Z,0.77
2024-03-10T14:47:34.803Z,3.47
2024-03-10T14:50:05.088Z,9.43
2024-03-10T14:52:32.029Z,0.90
2024-03-10T14:54:58.798Z,4.15
2024-03-10T14:57:25.781Z,1.95
2024-03-10T14:59:52.534Z,2.53
2024-03-10T15:02:19.333Z,0.77
2024-03-10T15:04:46.177Z,1.38
2024-03-10T15:07:13.066Z,1.30
2024-03-10T15:09:39.939Z,2.10
2024-03-10T15:12:07.396Z,1.05
2024-03-10T15:14:34.340Z,0.85
2024-03-10T15:17:02.803Z,1.10
2024-03-10T15:19:29.650Z,3.08
2024-03-10T15:21:59.158Z,1.30
2024-03-10T15:24:25.899Z,1.40
2024-03-10T15:26:52.659Z,2.53
2024-03-10T15:29:22.609Z,1.23
2024-03-10T15:31:49.836Z,1.70
2024-03-10T15:34:16.912Z,1.42
2024-03-10T15:36:43.631Z,1.73
2024-03-10T15:39:10.817Z,3.40
2024-03-10T15:41:37.719Z,2.03
2024-03-10T15:44:04.609Z,0.82
2024-03-10T15:46:31.446Z,0.85
2024-03-10T15:49:00.773Z,1.15
2024-03-10T15:51:27.734Z,1.58
2024-03-10T15:53:57.005Z,1.25
2024-03-10T15:56:23.929Z,0.90
2024-03-10T15:58:54.593Z,1.42
2024-03-10T16:01:23.240Z,3.03
2024-03-10T16:03:58.415Z,0.90
2024-03-10T16:06:25.462Z,3.15
2024-03-10T16:08:52.477Z,1.40
2024-03-10T16:11:22.164Z,1.83
2024-03-10T16:14:11.264Z,5.93
2024-03-10T16:16:38.563Z,3.42
2024-03-10T16:19:05.371Z,3.58
2024-03-10T16:21:35.434Z,4.90
2024-03-10T16:24:02.271Z,3.72
2024-03-10T16:26:29.035Z,1.23
2024-03-10T16:28:55.788Z,1.33
2024-03-10T16:31:22.576Z,2.63
2024-03-10T16:33:49.501Z,1.02
2024-03-10T16:36:16.353Z,1.48
2024-03-10T16:38:43.203Z,4.75
2024-03-10T16:41:10.634Z,1.30
2024-03-10T16:43:38.055Z,2.28
2024-03-10T16:46:04.931Z,1.58
2024-03-10T16:48:31.760Z,1.33
2024-03-10T16:50:58.559Z,2.40
2024-03-10T16:53:25.432Z,1.23
2024-03-10T16:55:52.237Z,2.25
2024-03-10T16:58:19.142Z,3.45
2024-03-10T17:00:45.896Z,1.58
2024-03-10T17:03:12.648Z,2.13
2024-03-10T17:05:42.814Z,1.17
2024-03-10T17:08:09.748Z,2.08
2024-03-10T17:10:45.396Z,4.25
2024-03-10T17:13:13.967Z,1.65
2024-03-10T17:15:40.731Z,1.88
2024-03-10T17:18:07.648Z,3.10
2024-03-10T17:20:38.099Z,4.40
2024-03-10T17:23:05.125Z,1.73
2024-03-10T17:25:35.891Z,4.47
2024-03-10T17:28:08.152Z,4.60
2024-03-10T17:30:35.989Z,9.05
2024-03-10T17:33:04.205Z,10.20
2024-03-10T17:35:31.083Z,12.68
2024-03-10T17:37:57.885Z,4.97
2024-03-10T17:40:24.645Z,11.30
2024-03-10T17:42:55.250Z,10.60
2024-03-10T17:45:22.941Z,10.48
2024-03-10T17:47:49.788Z,6.63
2024-03-10T17:50:16.646Z,10.15
2024-03-10T17:52:43.436Z,7.38
2024-03-10T17:55:10.852Z,6.05
2024-03-10T17:57:37.771Z,5.22
2024-03-10T18:00:06.235Z,4.38
2024-03-10T18:02:34.008Z,4.25
2024-03-10T18:05:01.007Z,4.72
2024-03-10T18:07:28.452Z,2.95
2024-03-10T18:09:55.670Z,8.25
2024-03-10T18:12:22.518Z,3.25
2024-03-10T18:14:53.805Z,1.80
2024-03-10T18:17:20.572Z,4.10
2024-03-10T18:19:49.578Z,13.18
2024-03-10T18:22:16.494Z,9.23
2024-03-10T18:24:46.335Z,3.50
2024-03-10T18:27:13.486Z,4.93
2024-03-10T18:29:43.519Z,6.00
2024-03-10T18:32:10.433Z,6.85
2024-03-10T18:34:37.333Z,8.60
2024-03-10T18:37:04.348Z,7.57
2024-03-10T18:39:31.122Z,3.78
2024-03-10T18:41:58.123Z,5.28
2024-03-10T18:44:25.056Z,5.28
2024-03-10T18:46:51.848Z,2.97
2024-03-10T18:49:18.702Z,5.72
2024-03-10T18:51:45.487Z,6.82
2024-03-10T18:54:12.280Z,9.18
2024-03-10T18:56:41.928Z,8.05
2024-03-10T18:59:08.662Z,3.75
2024-03-10T19:01:35.668Z,5.35
2024-03-10T19:04:02.486Z,8.57
2024-03-10T19:06:29.712Z,5.88
2024-03-10T19:08:56.459Z,3.63
2024-03-10T19:11:23.276Z,6.88
2024-03-10T19:13:50.054Z,3.95
2024-03-10T19:16:16.938Z,8.73
2024-03-10T19:18:46.093Z,6.05
2024-03-10T19:21:13.118Z,3.53
2024-03-10T19:23:40.148Z,7.72
2024-03-10T19:26:08.477Z,7.20
2024-03-10T19:28:38.417Z,4.50
2024-03-10T19:31:05.801Z,5.05
2024-03-10T19:33:33.322Z,4.25
2024-03-10T19:36:00.079Z,9.88
2024-03-10T19:38:27.243Z,5.70
2024-03-10T19:40:54.198Z,6.22
2024-03-10T19:43:21.486Z,4.43
2024-03-10T19:45:48.776Z,7.07
2024-03-10T19:48:18.443Z,8.35
2024-03-10T19:50:50.055Z,5.07
2024-03-10T19:53:17.728Z,4.78
2024-03-10T19:55:50.275Z,6.00
2024-03-10T19:58:17.071Z,5.43
2024-03-10T20:00:43.977Z,5.30
2024-03-10T20:03:10.816Z,4.43
2024-03-10T20:05:37.686Z,4.05
2024-03-10T20:08:04.761Z,3.60
2024-03-10T20:10:35.386Z,6.63
2024-03-10T20:13:02.151Z,3.90
2024-03-10T20:15:29.425Z,5.43
2024-03-10T20:17:56.545Z,4.75
2024-03-10T20:20:24.577Z,6.32
2024-03-10T20:22:55.241Z,6.55
2024-03-10T20:25:26.782Z,11.05
2024-03-10T20:27:54.863Z,6.07
2024-03-10T20:30:21.643Z,4.57
2024-03-10T20:32:48.790Z,4.85
2024-03-10T20:35:16.569Z,13.18
2024-03-10T20:37:43.290Z,6.45
2024-03-10T20:40:10.896Z,6.80
2024-03-10T20:42:37.917Z,7.30
2024-03-10T20:45:04.981Z,8.43
2024-03-10T20:47:34.184Z,6.07
2024-03-10T20:50:00.987Z,7.03
2024-03-10T20:52:27.802Z,9.70
2024-03-10T20:54:54.557Z,14.57
2024-03-10T20:57:21.345Z,7.15
2024-03-10T20:59:48.310Z,13.27
2024-03-10T21:02:17.663Z,8.65
2024-03-10T21:04:45.241Z,7.70
2024-03-10T21:07:14.845Z,13.23
2024-03-10T21:09:42.054Z,7.53
2024-03-10T21:12:09.094Z,5.32
2024-03-10T21:14:35.890Z,8.30
2024-03-10T21:17:04.112Z,9.20
2024-03-10T21:19:30.894Z,6.22
2024-03-10T21:21:57.896Z,7.60
2024-03-10T21:24:24.837Z,9.90
2024-03-10T21:26:51.611Z,5.20
2024-03-10T21:29:18.479Z,9.18
2024-03-10T21:31:45.318Z,9.10
2024-03-10T21:34:12.018Z,7.95
2024-03-10T21:36:38.740Z,6.32
2024-03-10T21:39:07.807Z,8.48
2024-03-10T21:41:34.593Z,5.20
2024-03-10T21:44:01.554Z,4.57
2024-03-10T21:46:30.806Z,6.15
2024-03-10T21:48:57.589Z,5.47
2024-03-10T21:51:26.213Z,6.78
2024-03-10T21:53:55.707Z,10.75
2024-03-10T21:56:22.608Z,6.80
2024-03-10T21:58:49.414Z,10.88
2024-03-10T22:01:16.295Z,8.57
2024-03-10T22:03:43.206Z,4.35
2024-03-10T22:06:11.633Z,7.80
2024-03-10T22:08:38.393Z,10.48
2024-03-10T22:11:05.170Z,6.40
2024-03-10T22:13:31.993Z,12.35
2024-03-10T22:15:58.905Z,7.30
2024-03-10T22:18:25.667Z,8.18
2024-03-10T22:20:52.459Z,5.07
2024-03-10T22:23:19.489Z,7.13
2024-03-10T22:25:48.912Z,4.80
2024-03-10T22:28:15.707Z,5.78
2024-03-10T22:30:44.977Z,3.03
2024-03-10T22:33:11.852Z,5.05
2024-03-10T22:35:38.669Z,4.28
2024-03-10T22:38:05.452Z,6.88
2024-03-10T22:40:35.225Z,5.63
2024-03-10T22:43:02.014Z,5.22
2024-03-10T22:45:31.986Z,6.82
2024-03-10T22:48:03.578Z,8.80
2024-03-10T22:50:30.672Z,8.70
2024-03-10T22:52:57.622Z,6.95
2024-03-10T22:55:24.501Z,8.05
2024-03-10T22:57:54.904Z,7.90
2024-03-10T23:00:22.173Z,7.72
2024-03-10T23:02:51.707Z,10.05
2024-03-10T23:05:19.901Z,5.05
2024-03-10T23:07:46.797Z,6.40
2024-03-10T23:10:13.582Z,5.13
2024-03-10T23:12:44.017Z,3.95
2024-03-10T23:15:11.127Z,3.42
2024-03-10T23:17:38.838Z,9.13
2024-03-10T23:20:07.183Z,4.40
2024-03-10T23:22:34.435Z,6.20
2024-03-10T23:25:01.310Z,5.53
2024-03-10T23:27:30.846Z,6.32
2024-03-10T23:29:57.932Z,7.68
2024-03-10T23:32:25.276Z,6.38
2024-03-10T23:34:53.087Z,7.60
2024-03-10T23:37:20.294Z,11.05
2024-03-10T23:39:47.205Z,6.82
2024-03-10T23:42:14.858Z,7.80
2024-03-10T23:44:41.790Z,7.15
2024-03-10T23:47:09.050Z,8.00
2024-03-10T23:49:36.025Z,7.00
2024-03-10T23:52:02.805Z,12.60
2024-03-10T23:54:29.575Z,10.38
2024-03-10T23:56:59.144Z,5.63
2024-03-10T23:59:25.925Z,11.77
